createdAt,value
2022-09-12T00:00:42.909Z,17355.16
2022-09-12T00:03:10.705Z,17689.75
2022-09-12T00:05:42.393Z,18021.22
2022-09-12T00:08:12.900Z,18023.16
2022-09-12T00:10:40.993Z,17689.41
2022-09-12T00:13:08.979Z,17687.81
2022-09-12T00:15:39.142Z,17688.31
2022-09-12T00:18:07.209Z,17353.56
2022-09-12T00:20:34.614Z,17018.84
2022-09-12T00:23:02.279Z,17018.38
2022-09-12T00:25:31.349Z,17354.38
2022-09-12T00:27:58.805Z,17353.09
2022-09-12T00:30:26.193Z,17017.75
2022-09-12T00:32:54.696Z,17016.69
2022-09-12T00:35:22.074Z,16681.19
2022-09-12T00:37:49.431Z,17016.06
2022-09-12T00:40:17.086Z,16345.41
2022-09-12T00:42:45.849Z,16680.75
2022-09-12T00:45:23.189Z,16343.50
2022-09-12T00:47:50.736Z,16342.31
2022-09-12T00:50:19.475Z,16342.91
2022-09-12T00:52:51.559Z,16006.75
2022-09-12T00:55:23.129Z,16005.59
2022-09-12T00:57:55.308Z,16006.03
2022-09-12T01:00:25.220Z,16336.81
2022-09-12T01:02:55.932Z,16335.78
2022-09-12T01:05:24.283Z,16336.06
2022-09-12T01:07:53.184Z,16335.16
2022-09-12T01:10:20.691Z,16334.00
2022-09-12T01:12:48.961Z,16668.50
2022-09-12T01:15:17.905Z,16331.63
2022-09-12T01:18:02.406Z,16332.94
2022-09-12T01:20:52.855Z,16997.13
2022-09-12T01:23:59.235Z,16660.78
2022-09-12T01:26:49.139Z,16996.53
2022-09-12T01:29:37.811Z,17328.38
2022-09-12T01:32:13.592Z,17326.50
2022-09-12T01:34:48.443Z,17325.88
2022-09-12T01:37:21.472Z,17658.50
2022-09-12T01:39:56.400Z,17656.75
2022-09-12T01:42:32.128Z,17657.56
2022-09-12T01:45:05.887Z,17322.41
2022-09-12T01:47:41.277Z,17321.47
2022-09-12T01:50:15.051Z,17323.66
2022-09-12T01:52:48.768Z,16654.75
2022-09-12T01:55:20.759Z,16988.84
2022-09-12T01:57:54.161Z,16654.00
2022-09-12T02:00:21.667Z,16987.44
2022-09-12T02:02:57.320Z,16986.06
2022-09-12T02:05:32.233Z,16986.06
2022-09-12T02:08:04.987Z,16986.22
2022-09-12T02:10:37.679Z,16985.00
2022-09-12T02:13:12.508Z,17652.78
2022-09-12T02:15:44.493Z,17652.00
2022-09-12T02:18:18.017Z,17319.44
2022-09-12T02:20:49.139Z,16985.59
2022-09-12T02:23:21.743Z,16984.84
2022-09-12T02:25:53.307Z,16650.53
2022-09-12T02:28:25.769Z,16983.59
2022-09-12T02:31:13.673Z,16649.31
2022-09-12T02:33:49.365Z,16648.56
2022-09-12T02:36:26.837Z,16651.28
2022-09-12T02:38:55.317Z,16649.63
2022-09-12T02:41:23.355Z,16651.59
2022-09-12T02:43:52.630Z,16983.16
2022-09-12T02:46:24.364Z,17316.31
2022-09-12T02:48:53.227Z,16982.06
2022-09-12T02:51:23.681Z,16981.75
2022-09-12T02:53:51.505Z,17314.75
2022-09-12T02:56:24.648Z,16982.69
2022-09-12T02:58:52.904Z,17647.69
2022-09-12T03:01:34.739Z,17314.44
2022-09-12T03:04:27.596Z,17981.38
2022-09-12T03:07:07.347Z,17980.41
2022-09-12T03:09:42.771Z,17980.72
2022-09-12T03:12:18.703Z,17647.06
2022-09-12T03:15:01.515Z,17312.88
2022-09-12T03:17:43.229Z,17647.53
2022-09-12T03:20:16.862Z,16979.91
2022-09-12T03:22:53.429Z,16981.47
2022-09-12T03:25:25.912Z,16646.16
2022-09-12T03:27:58.649Z,16981.00
2022-09-12T03:30:27.140Z,16647.34
2022-09-12T03:32:55.795Z,16981.63
2022-09-12T03:35:25.785Z,16647.50
2022-09-12T03:37:53.661Z,16315.91
2022-09-12T03:40:21.770Z,16317.09
2022-09-12T03:42:49.192Z,16651.28
2022-09-12T03:45:16.721Z,16651.44
2022-09-12T03:47:44.105Z,16984.84
2022-09-12T03:50:12.136Z,16985.00
2022-09-12T03:52:40.795Z,16652.78
2022-09-12T03:55:08.599Z,16652.50
2022-09-12T03:57:35.981Z,16984.38
2022-09-12T04:00:05.216Z,16987.00
2022-09-12T04:02:32.582Z,17318.97
2022-09-12T04:04:59.972Z,16984.84
2022-09-12T04:07:27.735Z,16985.16
2022-09-12T04:09:56.424Z,16986.06
2022-09-12T04:12:23.807Z,16652.63
2022-09-12T04:14:51.144Z,16317.53
2022-09-12T04:17:18.491Z,16650.69
2022-09-12T04:19:45.844Z,16650.97
2022-09-12T04:22:13.203Z,16984.38
2022-09-12T04:24:40.660Z,16650.06
2022-09-12T04:27:09.330Z,16650.06
2022-09-12T04:29:36.996Z,16650.53
2022-09-12T04:32:04.681Z,16650.69
2022-09-12T04:34:32.369Z,16314.56
2022-09-12T04:37:07.282Z,16649.47
2022-09-12T04:39:34.742Z,16315.91
2022-09-12T04:42:03.113Z,16315.00
2022-09-12T04:44:33.026Z,16649.16
2022-09-12T04:47:00.422Z,16315.31
2022-09-12T04:49:27.845Z,16315.91
2022-09-12T04:51:55.753Z,16317.53
2022-09-12T04:54:23.115Z,16315.59
2022-09-12T04:56:52.465Z,16316.50
2022-09-12T04:59:21.063Z,16315.91
2022-09-12T05:01:50.267Z,16315.91
2022-09-12T05:04:17.695Z,16317.38
2022-09-12T05:06:47.298Z,15983.16
2022-09-12T05:09:15.847Z,15983.16
2022-09-12T05:12:04.243Z,15984.31
2022-09-12T05:14:33.171Z,15317.19
2022-09-12T05:17:02.422Z,15654.63
2022-09-12T05:19:31.302Z,15653.78
2022-09-12T05:22:00.127Z,15654.50
2022-09-12T05:24:27.777Z,15655.91
2022-09-12T05:26:55.174Z,15657.91
2022-09-12T05:29:22.555Z,15659.78
2022-09-12T05:31:52.099Z,15659.63
2022-09-12T05:34:21.591Z,15663.78
2022-09-12T05:36:49.131Z,15664.19
2022-09-12T05:39:16.765Z,15663.78
2022-09-12T05:41:44.123Z,16669.41
2022-09-12T05:44:14.039Z,17008.66
2022-09-12T05:46:43.177Z,17010.97
2022-09-12T05:49:12.524Z,17348.09
2022-09-12T05:51:43.570Z,18357.34
2022-09-12T05:54:13.235Z,19032.09
2022-09-12T05:56:42.934Z,19705.91
2022-09-12T05:59:13.901Z,19708.34
2022-09-12T06:01:41.786Z,21053.28
2022-09-12T06:04:09.786Z,22069.25
2022-09-12T06:06:39.345Z,23417.06
2022-09-12T06:09:08.431Z,24428.38
2022-09-12T06:11:37.639Z,25438.00
2022-09-12T06:14:05.534Z,27126.13
2022-09-12T06:16:34.913Z,27132.28
2022-09-12T06:19:04.703Z,27469.72
2022-09-12T06:21:32.133Z,26801.88
2022-09-12T06:23:59.995Z,26802.81
2022-09-12T06:26:29.488Z,28829.59
2022-09-12T06:28:59.035Z,30863.41
2022-09-12T06:31:28.739Z,31541.34
2022-09-12T06:33:57.439Z,31881.06
2022-09-12T06:36:27.147Z,30870.34
2022-09-12T06:38:55.438Z,29863.31
2022-09-12T06:41:23.006Z,31219.47
2022-09-12T06:43:52.286Z,31897.06
2022-09-12T06:46:20.075Z,33930.00
2022-09-12T06:48:47.894Z,36641.41
2022-09-12T06:51:17.338Z,38334.22
2022-09-12T06:53:46.003Z,40375.16
2022-09-12T06:56:15.484Z,41740.88
2022-09-12T06:58:43.932Z,45122.25
2022-09-12T07:01:14.399Z,44787.19
2022-09-12T07:03:43.297Z,44457.38
2022-09-12T07:06:12.230Z,44115.06
2022-09-12T07:08:40.907Z,46161.00
2022-09-12T07:11:13.311Z,48206.78
2022-09-12T07:13:41.383Z,51269.50
2022-09-12T07:16:10.022Z,51616.97
2022-09-12T07:18:39.972Z,55024.97
2022-09-12T07:21:09.215Z,56724.06
2022-09-12T07:23:36.662Z,58763.91
2022-09-12T07:26:04.351Z,56362.56
2022-09-12T07:28:34.140Z,53314.66
2022-09-12T07:31:07.043Z,53333.19
2022-09-12T07:33:34.479Z,58115.94
2022-09-12T07:36:05.316Z,56772.03
2022-09-12T07:38:32.925Z,63945.38
2022-09-12T07:41:01.757Z,72851.25
2022-09-12T07:43:29.159Z,68759.53
2022-09-12T07:45:57.398Z,74260.63
2022-09-12T07:48:25.059Z,90737.78
2022-09-12T07:50:59.775Z,87308.97
2022-09-12T07:53:33.951Z,90103.50
2022-09-12T07:56:02.880Z,95673.97
2022-09-12T07:58:30.737Z,116779.41
2022-09-12T08:01:03.212Z,125156.34
2022-09-12T08:03:30.623Z,141220.16
2022-09-12T08:06:04.457Z,145390.34
2022-09-12T08:08:33.275Z,120988.22
2022-09-12T08:11:01.638Z,154537.69
2022-09-12T08:13:29.794Z,154605.03
2022-09-12T08:16:00.709Z,154538.97
2022-09-12T08:18:29.118Z,154494.94
2022-09-12T08:21:00.279Z,154528.63
2022-09-12T08:23:28.608Z,130011.09
2022-09-12T08:26:05.920Z,130724.28
2022-09-12T08:28:35.592Z,150360.59
2022-09-12T08:31:03.955Z,149836.78
2022-09-12T08:33:33.476Z,154527.34
2022-09-12T08:36:05.936Z,154550.63
2022-09-12T08:38:33.472Z,154597.28
2022-09-12T08:41:08.014Z,154612.84
2022-09-12T08:43:52.046Z,154575.22
2022-09-12T08:46:25.644Z,154544.19
2022-09-12T08:48:53.600Z,154632.22
2022-09-12T08:51:21.431Z,154625.78
2022-09-12T08:53:51.293Z,154516.97
2022-09-12T08:56:20.309Z,154516.97
2022-09-12T08:58:48.750Z,154662.09
2022-09-12T09:01:25.772Z,154750.22
2022-09-12T09:04:17.884Z,154861.66
2022-09-12T09:06:59.168Z,154917.44
2022-09-12T09:09:39.564Z,155025.06
2022-09-12T09:12:16.636Z,155056.19
2022-09-12T09:14:57.492Z,155187.25
2022-09-12T09:17:29.021Z,155100.38
2022-09-12T09:20:04.479Z,154988.75
2022-09-12T09:22:39.152Z,154993.97
2022-09-12T09:25:13.467Z,155000.44
2022-09-12T09:27:50.960Z,155041.94
2022-09-12T09:30:21.490Z,155056.19
2022-09-12T09:32:52.817Z,154951.19
2022-09-12T09:35:27.449Z,154912.28
2022-09-12T09:38:17.028Z,155030.25
2022-09-12T09:40:52.313Z,154978.41
2022-09-12T09:43:23.814Z,154960.22
2022-09-12T09:45:52.712Z,154929.09
2022-09-12T09:48:23.539Z,155128.91
2022-09-12T09:50:51.568Z,155191.16
2022-09-12T09:53:29.973Z,155211.88
2022-09-12T09:56:01.620Z,155302.75
2022-09-12T09:58:34.480Z,155313.19
2022-09-12T10:01:03.298Z,155196.34
2022-09-12T10:03:33.929Z,155209.34
2022-09-12T10:06:03.848Z,155185.94
2022-09-12T10:08:33.592Z,155391.03
2022-09-12T10:11:04.807Z,155358.63
2022-09-12T10:13:38.449Z,155515.72
2022-09-12T10:16:08.330Z,155310.56
2022-09-12T10:18:41.695Z,155256.00
2022-09-12T10:21:17.502Z,155230.06
2022-09-12T10:23:45.958Z,155191.16
2022-09-12T10:26:16.244Z,155227.47
2022-09-12T10:28:49.721Z,155139.25
2022-09-12T10:31:29.146Z,155157.41
2022-09-12T10:34:00.071Z,155078.22
2022-09-12T10:36:37.442Z,155036.72
2022-09-12T10:39:05.889Z,155065.25
2022-09-12T10:41:37.754Z,155063.97
2022-09-12T10:44:16.943Z,155092.56
2022-09-12T10:46:44.314Z,155127.59
2022-09-12T10:49:27.068Z,155108.13
2022-09-12T10:51:55.811Z,155123.69
2022-09-12T10:54:26.392Z,155125.00
2022-09-12T10:57:06.712Z,155154.84
2022-09-12T10:59:47.659Z,155187.25
2022-09-12T11:02:22.785Z,155205.44
2022-09-12T11:05:02.207Z,155328.75
2022-09-12T11:07:40.336Z,155440.41
2022-09-12T11:10:22.317Z,155511.81
2022-09-12T11:12:58.610Z,155404.03
2022-09-12T11:15:42.420Z,155442.97
2022-09-12T11:18:23.630Z,155536.53
2022-09-12T11:21:16.781Z,155468.91
2022-09-12T11:24:07.089Z,155567.69
2022-09-12T11:26:45.804Z,155656.00
2022-09-12T11:29:22.410Z,155710.63
2022-09-12T11:32:08.938Z,155676.78
2022-09-12T11:34:49.598Z,155588.47
2022-09-12T11:37:30.663Z,155684.59
2022-09-12T11:40:08.656Z,155627.44
2022-09-12T11:42:39.595Z,155772.97
2022-09-12T11:45:16.721Z,155570.28
2022-09-12T11:47:51.675Z,155528.72
2022-09-12T11:50:25.963Z,155674.16
2022-09-12T11:52:56.029Z,155631.34
2022-09-12T11:55:28.221Z,155770.38
2022-09-12T11:58:04.309Z,155806.78
2022-09-12T12:00:37.100Z,155674.16
2022-09-12T12:03:13.588Z,155648.19
2022-09-12T12:05:47.400Z,155624.81
2022-09-12T12:08:15.179Z,155708.03
2022-09-12T12:10:44.988Z,155440.41
2022-09-12T12:13:20.486Z,155436.50
2022-09-12T12:15:50.789Z,155432.59
2022-09-12T12:18:25.226Z,155397.56
2022-09-12T12:20:54.081Z,155415.69
2022-09-12T12:23:31.966Z,155468.91
2022-09-12T12:26:01.776Z,155370.28
2022-09-12T12:28:57.397Z,155350.81
2022-09-12T12:31:24.796Z,155313.19
2022-09-12T12:33:56.490Z,155400.16
2022-09-12T12:36:38.438Z,155432.59
2022-09-12T12:39:55.482Z,155497.50
2022-09-12T12:43:02.973Z,155533.94
2022-09-12T12:46:11.949Z,155601.47
2022-09-12T12:48:57.049Z,155643.03
2022-09-12T12:51:46.611Z,155581.97
2022-09-12T12:54:48.819Z,155605.31
2022-09-12T12:57:20.504Z,155549.53
2022-09-12T12:59:51.804Z,155510.53
2022-09-12T13:02:28.192Z,155393.66
2022-09-12T13:04:58.777Z,155435.19
2022-09-12T13:07:34.135Z,155476.75
2022-09-12T13:10:03.027Z,155566.38
2022-09-12T13:12:35.075Z,155552.09
2022-09-12T13:15:04.553Z,155567.69
2022-09-12T13:17:36.993Z,155627.44
2022-09-12T13:20:30.096Z,155544.31
2022-09-12T13:22:59.876Z,155548.22
2022-09-12T13:25:30.503Z,155497.50
2022-09-12T13:27:59.959Z,155432.59
2022-09-12T13:30:28.601Z,155454.69
2022-09-12T13:32:58.332Z,155450.78
2022-09-12T13:35:41.440Z,155422.22
2022-09-12T13:38:18.112Z,155472.81
2022-09-12T13:40:59.845Z,155526.09
2022-09-12T13:43:38.768Z,155539.09
2022-09-12T13:46:08.314Z,155567.69
2022-09-12T13:48:36.041Z,155585.88
2022-09-12T13:51:05.779Z,155519.66
2022-09-12T13:53:47.176Z,155513.13
2022-09-12T13:56:17.564Z,155470.22
2022-09-12T13:58:54.080Z,155448.16
2022-09-12T14:01:22.385Z,155432.59
2022-09-12T14:04:10.188Z,155461.16
2022-09-12T14:06:48.051Z,155463.75
2022-09-12T14:09:24.886Z,155471.53
2022-09-12T14:11:53.694Z,155463.75
2022-09-12T14:14:33.708Z,155461.16
2022-09-12T14:17:01.998Z,155487.13
2022-09-12T14:19:30.020Z,155394.94
2022-09-12T14:22:02.054Z,155419.59
2022-09-12T14:24:31.035Z,155372.91
2022-09-12T14:26:58.792Z,155392.34
2022-09-12T14:29:27.328Z,155398.84
2022-09-12T14:32:02.468Z,155404.03
2022-09-12T14:34:30.872Z,155365.09
2022-09-12T14:36:59.898Z,155333.91
2022-09-12T14:39:32.772Z,155375.47
2022-09-12T14:42:07.176Z,155370.28
2022-09-12T14:44:36.040Z,155384.56
2022-09-12T14:47:14.331Z,155378.06
2022-09-12T14:49:42.539Z,155380.66
2022-09-12T14:52:26.747Z,155388.44
2022-09-12T14:54:58.527Z,155401.41
2022-09-12T14:57:38.875Z,155387.19
2022-09-12T15:00:16.081Z,155401.41
2022-09-12T15:02:44.458Z,155388.44
2022-09-12T15:05:28.336Z,155361.19
2022-09-12T15:07:59.695Z,155398.84
2022-09-12T15:10:31.035Z,155352.09
2022-09-12T15:13:14.978Z,155346.91
2022-09-12T15:15:44.468Z,155310.56
2022-09-12T15:18:12.371Z,155311.88
2022-09-12T15:20:41.930Z,155300.16
2022-09-12T15:23:18.906Z,155271.59
2022-09-12T15:25:49.856Z,155263.81
2022-09-12T15:28:20.118Z,155245.66
2022-09-12T15:30:49.509Z,155237.88
2022-09-12T15:33:17.637Z,155249.56
2022-09-12T15:35:45.375Z,155209.34
2022-09-12T15:38:14.099Z,155211.88
2022-09-12T15:40:41.780Z,155204.13
2022-09-12T15:43:11.283Z,155201.53
2022-09-12T15:45:38.651Z,155214.50
2022-09-12T15:48:06.280Z,155204.13
2022-09-12T15:50:33.958Z,155172.97
2022-09-12T15:53:01.830Z,155175.56
2022-09-12T15:55:32.991Z,155137.97
2022-09-12T15:58:04.828Z,155115.94
2022-09-12T16:00:33.777Z,155110.72
2022-09-12T16:03:01.252Z,155167.81
2022-09-12T16:05:29.531Z,155121.09
2022-09-12T16:07:56.940Z,155141.88
2022-09-12T16:10:26.645Z,155108.13
2022-09-12T16:12:58.848Z,155156.16
2022-09-12T16:15:27.249Z,155105.50
2022-09-12T16:17:54.873Z,155092.56
2022-09-12T16:20:23.187Z,155097.75
2022-09-12T16:22:50.831Z,155056.19
2022-09-12T16:25:18.789Z,155038.03
2022-09-12T16:27:46.212Z,155025.06
2022-09-12T16:30:15.135Z,154988.75
2022-09-12T16:32:42.491Z,154973.19
2022-09-12T16:35:10.527Z,154962.84
2022-09-12T16:37:38.018Z,154942.06
2022-09-12T16:40:07.530Z,154952.47
2022-09-12T16:42:35.682Z,154914.84
2022-09-12T16:45:03.507Z,154904.47
2022-09-12T16:47:33.549Z,154895.44
2022-09-12T16:50:00.988Z,154872.09
2022-09-12T16:52:28.854Z,154852.59
2022-09-12T16:54:56.195Z,154852.59
2022-09-12T16:57:23.673Z,154796.84
2022-09-12T16:59:51.026Z,154804.59
2022-09-12T17:02:18.475Z,154796.84
2022-09-12T17:04:47.190Z,154763.19
2022-09-12T17:07:14.520Z,154757.97
2022-09-12T17:09:45.066Z,154734.66
2022-09-12T17:12:14.849Z,154721.72
2022-09-12T17:14:42.179Z,154700.94
2022-09-12T17:17:09.624Z,154686.69
2022-09-12T17:19:36.971Z,154660.78
2022-09-12T17:22:05.811Z,154650.44
2022-09-12T17:24:33.497Z,154650.44
2022-09-12T17:27:00.875Z,154627.09
2022-09-12T17:29:28.480Z,154619.28
2022-09-12T17:31:56.107Z,154620.59
2022-09-12T17:34:23.455Z,154576.53
2022-09-12T17:36:50.847Z,154566.19
2022-09-12T17:39:19.526Z,154564.88
2022-09-12T17:41:47.081Z,154573.97
2022-09-12T17:44:15.774Z,154568.78
2022-09-12T17:46:43.883Z,154532.53
2022-09-12T17:49:13.799Z,154532.53
2022-09-12T17:51:41.972Z,154513.09
2022-09-12T17:54:12.235Z,154504.03
2022-09-12T17:56:40.967Z,154463.91
2022-09-12T17:59:11.544Z,154483.28
2022-09-12T18:01:56.781Z,154501.44
2022-09-12T18:04:24.207Z,154467.75
2022-09-12T18:06:51.670Z,154434.09
2022-09-12T18:09:21.122Z,154450.94
2022-09-12T18:11:50.255Z,154488.50
2022-09-12T18:14:18.442Z,154518.28
2022-09-12T18:16:46.014Z,154513.09
2022-09-12T18:19:14.027Z,154496.25
2022-09-12T18:21:41.674Z,154483.28
2022-09-12T18:24:12.823Z,154423.75
2022-09-12T18:26:40.287Z,154405.63
2022-09-12T18:29:09.052Z,154405.63
2022-09-12T18:31:36.887Z,154392.63
2022-09-12T18:34:06.096Z,154373.19
2022-09-12T18:36:33.519Z,154379.69
2022-09-12T18:39:00.911Z,154384.88
2022-09-12T18:41:29.286Z,154355.09
2022-09-12T18:43:57.671Z,154327.91
2022-09-12T18:46:28.286Z,154292.94
2022-09-12T18:48:57.646Z,154294.25
2022-09-12T18:51:31.132Z,154276.16
2022-09-12T18:53:59.787Z,154239.88
2022-09-12T18:56:32.204Z,154198.47
2022-09-12T18:59:00.588Z,154197.19
2022-09-12T19:01:31.195Z,154208.88
2022-09-12T19:03:59.137Z,153548.81
2022-09-12T19:06:28.583Z,147148.63
2022-09-12T19:08:57.304Z,144345.53
2022-09-12T19:11:26.602Z,142599.78
2022-09-12T19:13:56.140Z,144362.50
2022-09-12T19:16:25.397Z,142250.47
2022-09-12T19:18:55.810Z,143285.19
2022-09-12T19:21:25.879Z,141170.81
2022-09-12T19:23:54.984Z,137665.44
2022-09-12T19:26:22.410Z,135571.56
2022-09-12T19:28:50.660Z,133126.19
2022-09-12T19:31:21.010Z,132422.00
2022-09-12T19:33:48.886Z,134189.09
2022-09-12T19:39:08.487Z,132767.94
2022-09-12T19:41:36.226Z,129639.00
2022-09-12T19:44:04.054Z,125426.88
2022-09-12T19:46:34.891Z,123003.47
2022-09-12T19:49:02.299Z,120225.41
2022-09-12T19:51:31.468Z,121638.59
2022-09-12T19:53:58.835Z,119883.56
2022-09-12T19:56:26.194Z,115343.69
2022-09-12T19:58:56.746Z,110497.97
2022-09-12T20:01:28.073Z,108074.47
2022-09-12T20:03:55.887Z,103577.22
2022-09-12T20:06:23.480Z,102912.16
2022-09-12T20:08:52.154Z,101148.00
2022-09-12T20:11:24.823Z,99068.16
2022-09-12T20:13:52.875Z,95290.47
2022-09-12T20:16:23.058Z,93550.91
2022-09-12T20:18:54.987Z,90450.41
2022-09-12T20:21:25.079Z,87355.22
2022-09-12T20:23:53.834Z,83929.31
2022-09-12T20:26:23.361Z,82560.28
2022-09-12T20:28:51.893Z,82560.28
2022-09-12T20:31:19.413Z,81203.34
2022-09-12T20:33:51.656Z,81540.00
2022-09-12T20:36:21.170Z,81193.13
2022-09-12T20:38:49.973Z,78779.34
2022-09-12T20:41:19.919Z,76370.09
2022-09-12T20:43:50.990Z,73982.63
2022-09-12T20:46:21.998Z,72970.41
2022-09-12T20:48:50.607Z,74684.81
2022-09-12T20:51:18.885Z,75705.56
2022-09-12T20:53:46.291Z,75346.28
2022-09-12T20:56:14.866Z,74663.44
2022-09-12T20:58:44.606Z,74325.81
2022-09-12T21:01:13.535Z,70899.19
2022-09-12T21:03:42.075Z,69529.44
2022-09-12T21:06:12.395Z,68173.09
2022-09-12T21:08:40.221Z,67483.56
2022-09-12T21:11:08.270Z,67145.72
2022-09-12T21:13:36.433Z,67158.72
2022-09-12T21:16:07.748Z,68851.84
2022-09-12T21:18:36.143Z,68845.44
2022-09-12T21:21:04.433Z,68155.81
2022-09-12T21:23:32.502Z,66794.31
2022-09-12T21:26:00.273Z,66449.81
2022-09-12T21:28:27.927Z,66432.44
2022-09-12T21:30:55.855Z,64730.44
2022-09-12T21:33:24.897Z,64747.91
2022-09-12T21:35:52.309Z,64395.00
2022-09-12T21:38:20.381Z,65410.59
2022-09-12T21:40:48.516Z,64379.81
2022-09-12T21:43:19.788Z,64034.72
2022-09-12T21:45:47.377Z,64398.28
2022-09-12T21:48:15.212Z,66112.03
2022-09-12T21:50:43.869Z,67809.41
2022-09-12T21:53:11.222Z,69847.38
2022-09-12T21:55:38.569Z,69491.94
2022-09-12T21:58:05.945Z,68139.72
2022-09-12T22:00:33.466Z,68128.81
2022-09-12T22:03:00.822Z,67444.31
2022-09-12T22:05:29.812Z,67084.59
2022-09-12T22:07:58.781Z,66069.13
2022-09-12T22:10:26.225Z,66739.16
2022-09-12T22:12:53.943Z,65375.31
2022-09-12T22:15:40.114Z,65369.78
2022-09-12T22:18:08.378Z,64690.03
2022-09-12T22:20:35.753Z,65368.69
2022-09-12T22:23:25.222Z,65706.63
2022-09-12T22:25:55.069Z,66396.59
2022-09-12T22:28:22.532Z,67417.59
2022-09-12T22:30:49.923Z,67388.03
2022-09-12T22:33:17.452Z,66016.75
2022-09-12T22:35:44.785Z,65003.28
2022-09-12T22:38:13.447Z,65706.63
2022-09-12T22:40:41.015Z,67398.81
2022-09-12T22:43:08.795Z,67044.97
2022-09-12T22:45:36.348Z,66355.72
2022-09-12T22:48:07.322Z,66351.25
2022-09-12T22:53:29.212Z,64965.41
2022-09-12T22:55:56.626Z,64978.59
2022-09-12T22:58:24.015Z,66343.97
2022-09-12T23:00:52.253Z,67021.22
2022-09-12T23:03:21.301Z,67016.13
2022-09-12T23:05:48.972Z,68382.31
2022-09-12T23:08:16.927Z,70397.78
2022-09-12T23:10:46.002Z,69386.59
2022-09-12T23:13:13.570Z,69354.97
2022-09-12T23:15:41.002Z,66606.91
2022-09-12T23:18:08.363Z,63220.72
2022-09-12T23:20:35.767Z,62518.69
2022-09-12T23:23:03.175Z,60818.16
2022-09-12T23:25:31.071Z,60145.66
2022-09-12T23:27:59.734Z,60511.31
2022-09-12T23:30:27.065Z,62201.53
2022-09-12T23:32:56.753Z,63227.16
2022-09-12T23:35:24.092Z,63574.69
2022-09-12T23:37:51.423Z,65281.00
2022-09-12T23:40:18.803Z,66284.03
2022-09-12T23:42:46.145Z,66277.88
2022-09-12T23:45:14.975Z,66281.25
2022-09-12T23:47:42.323Z,66614.22
2022-09-12T23:50:09.951Z,65944.91
2022-09-12T23:52:37.298Z,66636.72
2022-09-12T23:55:05.051Z,67648.88
2022-09-12T23:57:32.402Z,69016.69
2022-09-12T23:59:59.743Z,70366.31
